sensor_id;sensor_type;location;lat;lon;timestamp;temperature;humidity
10316;DHT22;5203;48.976;8.306;2023-04-21T00:00:32;6.20;96.90
10316;DHT22;5203;48.976;8.306;2023-04-21T00:03:04;6.20;96.00
10316;DHT22;5203;48.976;8.306;2023-04-21T00:05:30;6.20;95.40
10316;DHT22;5203;48.976;8.306;2023-04-21T00:07:57;6.20;95.00
10316;DHT22;5203;48.976;8.306;2023-04-21T00:10:23;6.20;93.90
10316;DHT22;5203;48.976;8.306;2023-04-21T00:12:48;6.10;94.80
10316;DHT22;5203;48.976;8.306;2023-04-21T00:15:14;6.10;94.50
10316;DHT22;5203;48.976;8.306;2023-04-21T00:17:39;5.90;96.30
10316;DHT22;5203;48.976;8.306;2023-04-21T00:20:06;5.90;96.40
10316;DHT22;5203;48.976;8.306;2023-04-21T00:22:33;5.90;95.00
10316;DHT22;5203;48.976;8.306;2023-04-21T00:24:58;5.90;94.90
10316;DHT22;5203;48.976;8.306;2023-04-21T00:27:24;5.80;93.40
10316;DHT22;5203;48.976;8.306;2023-04-21T00:29:50;5.80;92.90
10316;DHT22;5203;48.976;8.306;2023-04-21T00:32:15;5.80;92.40
10316;DHT22;5203;48.976;8.306;2023-04-21T00:34:41;5.70;93.70
10316;DHT22;5203;48.976;8.306;2023-04-21T00:37:06;5.80;93.50
10316;DHT22;5203;48.976;8.306;2023-04-21T00:39:32;5.70;94.10
10316;DHT22;5203;48.976;8.306;2023-04-21T00:41:58;5.80;95.00
10316;DHT22;5203;48.976;8.306;2023-04-21T00:44:23;5.80;94.10
10316;DHT22;5203;48.976;8.306;2023-04-21T00:46:49;5.70;92.60
10316;DHT22;5203;48.976;8.306;2023-04-21T00:49:14;5.70;93.40
10316;DHT22;5203;48.976;8.306;2023-04-21T00:51:40;5.80;93.70
10316;DHT22;5203;48.976;8.306;2023-04-21T00:54:07;5.70;93.20
10316;DHT22;5203;48.976;8.306;2023-04-21T00:56:34;5.70;92.60
10316;DHT22;5203;48.976;8.306;2023-04-21T00:59:01;5.70;90.60
10316;DHT22;5203;48.976;8.306;2023-04-21T01:01:28;5.50;90.30
10316;DHT22;5203;48.976;8.306;2023-04-21T01:03:57;5.50;90.40
10316;DHT22;5203;48.976;8.306;2023-04-21T01:06:24;5.50;90.20
10316;DHT22;5203;48.976;8.306;2023-04-21T01:08:51;5.40;89.80
10316;DHT22;5203;48.976;8.306;2023-04-21T01:11:18;5.40;90.30
10316;DHT22;5203;48.976;8.306;2023-04-21T01:13:43;5.40;90.90
10316;DHT22;5203;48.976;8.306;2023-04-21T01:16:15;5.30;91.30
10316;DHT22;5203;48.976;8.306;2023-04-21T01:18:41;5.40;91.00
10316;DHT22;5203;48.976;8.306;2023-04-21T01:21:07;5.40;90.40
10316;DHT22;5203;48.976;8.306;2023-04-21T01:23:33;5.40;92.00
10316;DHT22;5203;48.976;8.306;2023-04-21T01:25:58;5.30;94.10
10316;DHT22;5203;48.976;8.306;2023-04-21T01:28:25;5.30;96.70
10316;DHT22;5203;48.976;8.306;2023-04-21T01:30:51;5.30;97.80
10316;DHT22;5203;48.976;8.306;2023-04-21T01:33:17;5.10;94.20
10316;DHT22;5203;48.976;8.306;2023-04-21T01:35:44;4.90;93.90
10316;DHT22;5203;48.976;8.306;2023-04-21T01:38:10;4.90;93.80
10316;DHT22;5203;48.976;8.306;2023-04-21T01:40:37;4.90;93.40
10316;DHT22;5203;48.976;8.306;2023-04-21T01:43:02;4.90;93.90
10316;DHT22;5203;48.976;8.306;2023-04-21T01:45:29;5.10;92.80
10316;DHT22;5203;48.976;8.306;2023-04-21T01:47:55;5.20;93.10
10316;DHT22;5203;48.976;8.306;2023-04-21T01:50:21;5.10;91.60
10316;DHT22;5203;48.976;8.306;2023-04-21T01:52:47;5.10;91.80
10316;DHT22;5203;48.976;8.306;2023-04-21T01:55:12;5.10;91.90
10316;DHT22;5203;48.976;8.306;2023-04-21T01:57:39;5.20;91.80
10316;DHT22;5203;48.976;8.306;2023-04-21T02:00:05;5.10;89.90
10316;DHT22;5203;48.976;8.306;2023-04-21T02:02:31;5.00;89.50
10316;DHT22;5203;48.976;8.306;2023-04-21T02:04:57;4.90;90.40
10316;DHT22;5203;48.976;8.306;2023-04-21T02:07:23;4.80;90.90
10316;DHT22;5203;48.976;8.306;2023-04-21T02:09:48;4.80;90.00
10316;DHT22;5203;48.976;8.306;2023-04-21T02:12:14;4.90;90.20
10316;DHT22;5203;48.976;8.306;2023-04-21T02:14:39;4.80;90.70
10316;DHT22;5203;48.976;8.306;2023-04-21T02:17:05;4.90;92.20
10316;DHT22;5203;48.976;8.306;2023-04-21T02:19:31;4.80;93.30
10316;DHT22;5203;48.976;8.306;2023-04-21T02:21:57;4.80;92.60
10316;DHT22;5203;48.976;8.306;2023-04-21T02:24:22;4.60;91.80
10316;DHT22;5203;48.976;8.306;2023-04-21T02:26:48;4.60;91.30
10316;DHT22;5203;48.976;8.306;2023-04-21T02:29:13;4.50;90.80
10316;DHT22;5203;48.976;8.306;2023-04-21T02:31:39;4.50;90.20
10316;DHT22;5203;48.976;8.306;2023-04-21T02:34:06;4.60;90.20
10316;DHT22;5203;48.976;8.306;2023-04-21T02:36:32;4.60;90.10
10316;DHT22;5203;48.976;8.306;2023-04-21T02:38:58;4.60;90.20
10316;DHT22;5203;48.976;8.306;2023-04-21T02:41:23;4.70;89.00
10316;DHT22;5203;48.976;8.306;2023-04-21T02:43:49;4.70;89.40
10316;DHT22;5203;48.976;8.306;2023-04-21T02:46:14;4.60;88.50
10316;DHT22;5203;48.976;8.306;2023-04-21T02:48:40;4.50;89.10
10316;DHT22;5203;48.976;8.306;2023-04-21T02:51:11;4.50;90.10
10316;DHT22;5203;48.976;8.306;2023-04-21T02:53:38;4.50;91.70
10316;DHT22;5203;48.976;8.306;2023-04-21T02:56:04;4.50;93.30
10316;DHT22;5203;48.976;8.306;2023-04-21T02:58:30;4.40;93.30
10316;DHT22;5203;48.976;8.306;2023-04-21T03:00:56;3.80;91.30
10316;DHT22;5203;48.976;8.306;2023-04-21T03:03:21;3.60;96.00
10316;DHT22;5203;48.976;8.306;2023-04-21T03:05:47;3.60;96.90
10316;DHT22;5203;48.976;8.306;2023-04-21T03:08:13;3.70;98.30
10316;DHT22;5203;48.976;8.306;2023-04-21T03:10:38;3.80;99.10
10316;DHT22;5203;48.976;8.306;2023-04-21T03:13:04;3.80;99.60
10316;DHT22;5203;48.976;8.306;2023-04-21T03:15:30;3.80;96.90
10316;DHT22;5203;48.976;8.306;2023-04-21T03:17:55;3.80;96.50
10316;DHT22;5203;48.976;8.306;2023-04-21T03:20:21;3.80;94.50
10316;DHT22;5203;48.976;8.306;2023-04-21T03:22:47;3.70;95.00
10316;DHT22;5203;48.976;8.306;2023-04-21T03:25:12;3.80;94.20
10316;DHT22;5203;48.976;8.306;2023-04-21T03:27:38;4.00;96.10
10316;DHT22;5203;48.976;8.306;2023-04-21T03:30:04;4.00;97.20
10316;DHT22;5203;48.976;8.306;2023-04-21T03:32:31;4.10;98.20
10316;DHT22;5203;48.976;8.306;2023-04-21T03:34:57;4.10;97.10
10316;DHT22;5203;48.976;8.306;2023-04-21T03:37:22;4.10;91.80
10316;DHT22;5203;48.976;8.306;2023-04-21T03:39:48;4.00;91.90
10316;DHT22;5203;48.976;8.306;2023-04-21T03:42:13;4.00;92.70
10316;DHT22;5203;48.976;8.306;2023-04-21T03:44:39;4.00;92.90
10316;DHT22;5203;48.976;8.306;2023-04-21T03:47:05;3.90;93.30
10316;DHT22;5203;48.976;8.306;2023-04-21T03:49:33;3.90;94.90
10316;DHT22;5203;48.976;8.306;2023-04-21T03:51:58;3.90;93.10
10316;DHT22;5203;48.976;8.306;2023-04-21T03:54:24;3.80;92.70
10316;DHT22;5203;48.976;8.306;2023-04-21T03:56:50;3.80;91.70
10316;DHT22;5203;48.976;8.306;2023-04-21T03:59:15;3.80;91.20
10316;DHT22;5203;48.976;8.306;2023-04-21T04:01:41;3.80;90.70
10316;DHT22;5203;48.976;8.306;2023-04-21T04:04:07;3.70;91.40
10316;DHT22;5203;48.976;8.306;2023-04-21T04:06:33;3.50;90.40
10316;DHT22;5203;48.976;8.306;2023-04-21T04:09:00;3.50;92.50
10316;DHT22;5203;48.976;8.306;2023-04-21T04:11:29;3.50;92.80
10316;DHT22;5203;48.976;8.306;2023-04-21T04:13:55;3.50;94.50
10316;DHT22;5203;48.976;8.306;2023-04-21T04:16:20;3.50;93.60
10316;DHT22;5203;48.976;8.306;2023-04-21T04:18:46;3.50;93.30
10316;DHT22;5203;48.976;8.306;2023-04-21T04:21:12;3.50;92.70
10316;DHT22;5203;48.976;8.306;2023-04-21T04:23:37;3.50;92.40
10316;DHT22;5203;48.976;8.306;2023-04-21T04:26:03;3.50;91.90
10316;DHT22;5203;48.976;8.306;2023-04-21T04:28:30;3.50;91.80
10316;DHT22;5203;48.976;8.306;2023-04-21T04:30:56;3.50;92.90
10316;DHT22;5203;48.976;8.306;2023-04-21T04:33:21;3.60;92.60
10316;DHT22;5203;48.976;8.306;2023-04-21T04:35:47;3.70;93.50
10316;DHT22;5203;48.976;8.306;2023-04-21T04:38:13;3.50;92.40
10316;DHT22;5203;48.976;8.306;2023-04-21T04:40:41;3.40;93.80
10316;DHT22;5203;48.976;8.306;2023-04-21T04:43:08;3.40;96.00
10316;DHT22;5203;48.976;8.306;2023-04-21T04:45:35;3.40;97.40
10316;DHT22;5203;48.976;8.306;2023-04-21T04:48:02;3.40;98.10
10316;DHT22;5203;48.976;8.306;2023-04-21T04:50:28;3.50;98.30
10316;DHT22;5203;48.976;8.306;2023-04-21T04:52:54;3.60;97.20
10316;DHT22;5203;48.976;8.306;2023-04-21T04:55:20;3.50;93.90
10316;DHT22;5203;48.976;8.306;2023-04-21T04:57:46;3.40;94.30
10316;DHT22;5203;48.976;8.306;2023-04-21T05:00:12;3.30;94.40
10316;DHT22;5203;48.976;8.306;2023-04-21T05:02:39;3.20;95.50
10316;DHT22;5203;48.976;8.306;2023-04-21T05:05:05;3.20;95.10
10316;DHT22;5203;48.976;8.306;2023-04-21T05:07:32;3.40;95.20
10316;DHT22;5203;48.976;8.306;2023-04-21T05:09:58;3.40;95.10
10316;DHT22;5203;48.976;8.306;2023-04-21T05:12:23;3.40;92.20
10316;DHT22;5203;48.976;8.306;2023-04-21T05:14:49;3.30;92.60
10316;DHT22;5203;48.976;8.306;2023-04-21T05:17:15;3.30;92.50
10316;DHT22;5203;48.976;8.306;2023-04-21T05:19:40;3.40;93.70
10316;DHT22;5203;48.976;8.306;2023-04-21T05:22:06;3.50;95.30
10316;DHT22;5203;48.976;8.306;2023-04-21T05:24:32;3.40;93.10
10316;DHT22;5203;48.976;8.306;2023-04-21T05:26:58;3.30;93.90
10316;DHT22;5203;48.976;8.306;2023-04-21T05:29:24;3.30;93.90
10316;DHT22;5203;48.976;8.306;2023-04-21T05:31:50;3.50;93.80
10316;DHT22;5203;48.976;8.306;2023-04-21T05:34:15;3.40;92.30
10316;DHT22;5203;48.976;8.306;2023-04-21T05:36:41;3.40;92.20
10316;DHT22;5203;48.976;8.306;2023-04-21T05:39:07;3.40;93.60
10316;DHT22;5203;48.976;8.306;2023-04-21T05:41:33;3.40;93.50
10316;DHT22;5203;48.976;8.306;2023-04-21T05:43:59;3.50;93.80
10316;DHT22;5203;48.976;8.306;2023-04-21T05:46:25;3.40;93.50
10316;DHT22;5203;48.976;8.306;2023-04-21T05:48:50;3.40;94.70
10316;DHT22;5203;48.976;8.306;2023-04-21T05:51:16;3.30;93.80
10316;DHT22;5203;48.976;8.306;2023-04-21T05:53:43;3.20;94.50
10316;DHT22;5203;48.976;8.306;2023-04-21T05:56:09;3.10;95.50
10316;DHT22;5203;48.976;8.306;2023-04-21T05:58:36;3.00;96.90
10316;DHT22;5203;48.976;8.306;2023-04-21T06:01:02;3.10;96.50
10316;DHT22;5203;48.976;8.306;2023-04-21T06:03:30;3.10;97.20
10316;DHT22;5203;48.976;8.306;2023-04-21T06:05:57;3.30;96.30
10316;DHT22;5203;48.976;8.306;2023-04-21T06:08:23;3.40;96.10
10316;DHT22;5203;48.976;8.306;2023-04-21T06:10:48;3.50;99.10
10316;DHT22;5203;48.976;8.306;2023-04-21T06:13:14;3.60;97.10
10316;DHT22;5203;48.976;8.306;2023-04-21T06:15:40;3.60;95.50
10316;DHT22;5203;48.976;8.306;2023-04-21T06:18:06;3.60;95.30
10316;DHT22;5203;48.976;8.306;2023-04-21T06:20:31;3.40;94.70
10316;DHT22;5203;48.976;8.306;2023-04-21T06:22:57;3.30;96.10
10316;DHT22;5203;48.976;8.306;2023-04-21T06:25:22;3.40;96.50
10316;DHT22;5203;48.976;8.306;2023-04-21T06:27:48;3.50;96.40
10316;DHT22;5203;48.976;8.306;2023-04-21T06:30:14;3.60;98.30
10316;DHT22;5203;48.976;8.306;2023-04-21T06:32:40;3.70;99.90
10316;DHT22;5203;48.976;8.306;2023-04-21T06:35:06;3.80;99.90
10316;DHT22;5203;48.976;8.306;2023-04-21T06:37:31;3.90;99.90
10316;DHT22;5203;48.976;8.306;2023-04-21T06:39:57;4.10;99.90
10316;DHT22;5203;48.976;8.306;2023-04-21T06:42:22;4.30;99.90
10316;DHT22;5203;48.976;8.306;2023-04-21T06:44:48;4.60;99.90
10316;DHT22;5203;48.976;8.306;2023-04-21T06:47:14;4.80;99.90
10316;DHT22;5203;48.976;8.306;2023-04-21T06:49:41;4.90;99.90
10316;DHT22;5203;48.976;8.306;2023-04-21T06:52:06;5.00;99.90
10316;DHT22;5203;48.976;8.306;2023-04-21T06:54:32;5.20;99.90
10316;DHT22;5203;48.976;8.306;2023-04-21T06:56:58;5.30;99.90
10316;DHT22;5203;48.976;8.306;2023-04-21T06:59:23;5.50;99.90
10316;DHT22;5203;48.976;8.306;2023-04-21T07:01:49;5.50;99.90
10316;DHT22;5203;48.976;8.306;2023-04-21T07:04:17;5.70;99.90
10316;DHT22;5203;48.976;8.306;2023-04-21T07:06:43;5.90;99.90
10316;DHT22;5203;48.976;8.306;2023-04-21T07:09:09;6.00;99.90
10316;DHT22;5203;48.976;8.306;2023-04-21T07:11:34;6.20;99.90
10316;DHT22;5203;48.976;8.306;2023-04-21T07:14:00;6.30;99.90
10316;DHT22;5203;48.976;8.306;2023-04-21T07:16:27;6.30;99.90
10316;DHT22;5203;48.976;8.306;2023-04-21T07:18:53;6.40;99.90
10316;DHT22;5203;48.976;8.306;2023-04-21T07:21:18;6.50;99.90
10316;DHT22;5203;48.976;8.306;2023-04-21T07:23:44;6.60;99.90
10316;DHT22;5203;48.976;8.306;2023-04-21T07:26:10;6.70;99.90
10316;DHT22;5203;48.976;8.306;2023-04-21T07:28:36;6.90;99.90
10316;DHT22;5203;48.976;8.306;2023-04-21T07:31:03;7.00;99.90
10316;DHT22;5203;48.976;8.306;2023-04-21T07:33:29;7.10;98.50
10316;DHT22;5203;48.976;8.306;2023-04-21T07:35:54;7.20;98.40
10316;DHT22;5203;48.976;8.306;2023-04-21T07:38:20;7.20;97.40
10316;DHT22;5203;48.976;8.306;2023-04-21T07:40:46;7.40;98.20
10316;DHT22;5203;48.976;8.306;2023-04-21T07:43:11;7.50;98.20
10316;DHT22;5203;48.976;8.306;2023-04-21T07:45:37;7.70;97.70
10316;DHT22;5203;48.976;8.306;2023-04-21T07:48:03;7.80;95.60
10316;DHT22;5203;48.976;8.306;2023-04-21T07:50:30;8.00;95.10
10316;DHT22;5203;48.976;8.306;2023-04-21T07:52:56;8.10;94.60
10316;DHT22;5203;48.976;8.306;2023-04-21T07:55:21;8.30;93.90
10316;DHT22;5203;48.976;8.306;2023-04-21T07:57:47;8.50;93.10
10316;DHT22;5203;48.976;8.306;2023-04-21T08:00:13;8.60;92.30
10316;DHT22;5203;48.976;8.306;2023-04-21T08:02:39;8.80;90.80
10316;DHT22;5203;48.976;8.306;2023-04-21T08:05:05;8.90;91.80
10316;DHT22;5203;48.976;8.306;2023-04-21T08:07:31;9.20;89.50
10316;DHT22;5203;48.976;8.306;2023-04-21T08:09:57;9.40;89.20
10316;DHT22;5203;48.976;8.306;2023-04-21T08:12:22;9.60;88.00
10316;DHT22;5203;48.976;8.306;2023-04-21T08:14:48;9.60;88.50
10316;DHT22;5203;48.976;8.306;2023-04-21T08:17:14;10.00;88.30
10316;DHT22;5203;48.976;8.306;2023-04-21T08:19:40;10.40;83.10
10316;DHT22;5203;48.976;8.306;2023-04-21T08:22:05;10.70;77.90
10316;DHT22;5203;48.976;8.306;2023-04-21T08:24:31;11.10;79.20
10316;DHT22;5203;48.976;8.306;2023-04-21T08:26:57;11.20;77.00
10316;DHT22;5203;48.976;8.306;2023-04-21T08:29:22;11.40;75.80
10316;DHT22;5203;48.976;8.306;2023-04-21T08:31:48;11.70;74.30
10316;DHT22;5203;48.976;8.306;2023-04-21T08:34:14;11.90;71.40
10316;DHT22;5203;48.976;8.306;2023-04-21T08:36:39;12.00;70.20
10316;DHT22;5203;48.976;8.306;2023-04-21T08:39:07;12.10;69.10
10316;DHT22;5203;48.976;8.306;2023-04-21T08:41:32;12.10;70.50
10316;DHT22;5203;48.976;8.306;2023-04-21T08:43:58;12.20;70.10
10316;DHT22;5203;48.976;8.306;2023-04-21T08:46:24;12.20;70.30
10316;DHT22;5203;48.976;8.306;2023-04-21T08:48:51;12.40;69.60
10316;DHT22;5203;48.976;8.306;2023-04-21T08:51:22;12.60;66.80
10316;DHT22;5203;48.976;8.306;2023-04-21T08:53:48;12.70;67.40
10316;DHT22;5203;48.976;8.306;2023-04-21T08:56:14;12.70;67.10
10316;DHT22;5203;48.976;8.306;2023-04-21T08:58:39;12.60;68.00
10316;DHT22;5203;48.976;8.306;2023-04-21T09:01:06;12.80;68.30
10316;DHT22;5203;48.976;8.306;2023-04-21T09:03:31;13.10;66.10
10316;DHT22;5203;48.976;8.306;2023-04-21T09:06:02;13.20;65.60
10316;DHT22;5203;48.976;8.306;2023-04-21T09:08:30;13.30;65.50
10316;DHT22;5203;48.976;8.306;2023-04-21T09:10:57;13.30;65.40
10316;DHT22;5203;48.976;8.306;2023-04-21T09:13:34;13.50;64.40
10316;DHT22;5203;48.976;8.306;2023-04-21T09:16:02;13.70;63.90
10316;DHT22;5203;48.976;8.306;2023-04-21T09:18:29;13.60;64.80
10316;DHT22;5203;48.976;8.306;2023-04-21T09:21:09;13.90;63.40
10316;DHT22;5203;48.976;8.306;2023-04-21T09:23:42;14.00;64.70
10316;DHT22;5203;48.976;8.306;2023-04-21T09:26:08;14.20;61.60
10316;DHT22;5203;48.976;8.306;2023-04-21T09:28:34;14.20;60.90
10316;DHT22;5203;48.976;8.306;2023-04-21T09:31:00;14.20;62.10
10316;DHT22;5203;48.976;8.306;2023-04-21T09:33:25;14.30;62.50
10316;DHT22;5203;48.976;8.306;2023-04-21T09:35:51;14.50;60.70
10316;DHT22;5203;48.976;8.306;2023-04-21T09:38:20;14.60;60.00
10316;DHT22;5203;48.976;8.306;2023-04-21T09:40:58;14.70;60.10
10316;DHT22;5203;48.976;8.306;2023-04-21T09:43:24;14.60;60.40
10316;DHT22;5203;48.976;8.306;2023-04-21T09:45:50;14.60;60.50
10316;DHT22;5203;48.976;8.306;2023-04-21T09:48:17;14.80;59.60
10316;DHT22;5203;48.976;8.306;2023-04-21T09:50:43;14.90;62.20
10316;DHT22;5203;48.976;8.306;2023-04-21T09:53:14;15.10;59.80
10316;DHT22;5203;48.976;8.306;2023-04-21T09:55:41;15.20;59.00
10316;DHT22;5203;48.976;8.306;2023-04-21T09:58:08;15.20;59.40
10316;DHT22;5203;48.976;8.306;2023-04-21T10:00:37;15.40;59.70
10316;DHT22;5203;48.976;8.306;2023-04-21T10:03:04;15.60;59.00
10316;DHT22;5203;48.976;8.306;2023-04-21T10:05:35;15.80;58.40
10316;DHT22;5203;48.976;8.306;2023-04-21T10:08:01;16.00;58.70
10316;DHT22;5203;48.976;8.306;2023-04-21T10:10:28;16.30;56.80
10316;DHT22;5203;48.976;8.306;2023-04-21T10:12:58;16.30;57.40
10316;DHT22;5203;48.976;8.306;2023-04-21T10:15:30;16.60;57.60
10316;DHT22;5203;48.976;8.306;2023-04-21T10:20:56;17.10;54.20
10316;DHT22;5203;48.976;8.306;2023-04-21T10:23:42;17.00;54.00
10316;DHT22;5203;48.976;8.306;2023-04-21T10:31:48;17.10;53.70
10316;DHT22;5203;48.976;8.306;2023-04-21T10:34:17;17.30;53.60
10316;DHT22;5203;48.976;8.306;2023-04-21T10:39:30;17.90;52.60
10316;DHT22;5203;48.976;8.306;2023-04-21T10:44:49;17.80;51.40
10316;DHT22;5203;48.976;8.306;2023-04-21T10:47:29;18.00;50.40
10316;DHT22;5203;48.976;8.306;2023-04-21T10:49:58;18.10;49.10
10316;DHT22;5203;48.976;8.306;2023-04-21T10:52:31;18.20;50.30
10316;DHT22;5203;48.976;8.306;2023-04-21T10:57:31;18.70;49.00
10316;DHT22;5203;48.976;8.306;2023-04-21T10:59:57;19.00;49.20
10316;DHT22;5203;48.976;8.306;2023-04-21T11:02:22;18.90;47.70
10316;DHT22;5203;48.976;8.306;2023-04-21T11:04:52;18.80;48.50
10316;DHT22;5203;48.976;8.306;2023-04-21T11:07:22;18.90;48.70
10316;DHT22;5203;48.976;8.306;2023-04-21T11:10:05;19.00;48.20
10316;DHT22;5203;48.976;8.306;2023-04-21T11:12:33;19.00;47.90
10316;DHT22;5203;48.976;8.306;2023-04-21T11:15:03;19.00;48.80
10316;DHT22;5203;48.976;8.306;2023-04-21T11:17:29;19.30;47.60
10316;DHT22;5203;48.976;8.306;2023-04-21T11:19:55;19.50;47.10
10316;DHT22;5203;48.976;8.306;2023-04-21T11:22:25;19.70;46.80
10316;DHT22;5203;48.976;8.306;2023-04-21T11:24:55;19.80;45.70
10316;DHT22;5203;48.976;8.306;2023-04-21T11:27:22;20.10;45.90
10316;DHT22;5203;48.976;8.306;2023-04-21T11:29:49;20.40;44.70
10316;DHT22;5203;48.976;8.306;2023-04-21T11:32:17;20.80;44.00
10316;DHT22;5203;48.976;8.306;2023-04-21T11:34:43;21.00;42.70
10316;DHT22;5203;48.976;8.306;2023-04-21T11:37:13;20.60;44.10
10316;DHT22;5203;48.976;8.306;2023-04-21T11:39:40;20.60;43.60
10316;DHT22;5203;48.976;8.306;2023-04-21T11:42:06;20.70;42.10
10316;DHT22;5203;48.976;8.306;2023-04-21T11:44:52;20.70;42.30
10316;DHT22;5203;48.976;8.306;2023-04-21T11:47:21;20.90;43.40
10316;DHT22;5203;48.976;8.306;2023-04-21T11:49:53;21.00;41.60
10316;DHT22;5203;48.976;8.306;2023-04-21T11:52:32;21.20;42.30
10316;DHT22;5203;48.976;8.306;2023-04-21T11:55:01;21.60;40.30
10316;DHT22;5203;48.976;8.306;2023-04-21T11:57:28;21.40;40.20
10316;DHT22;5203;48.976;8.306;2023-04-21T11:59:58;21.70;41.10
10316;DHT22;5203;48.976;8.306;2023-04-21T12:02:28;21.50;40.30
10316;DHT22;5203;48.976;8.306;2023-04-21T12:04:58;21.70;39.90
10316;DHT22;5203;48.976;8.306;2023-04-21T12:07:24;21.70;40.50
10316;DHT22;5203;48.976;8.306;2023-04-21T12:09:53;21.90;38.40
10316;DHT22;5203;48.976;8.306;2023-04-21T12:12:20;21.90;39.30
10316;DHT22;5203;48.976;8.306;2023-04-21T12:14:46;22.20;39.70
10316;DHT22;5203;48.976;8.306;2023-04-21T12:17:11;22.30;38.50
10316;DHT22;5203;48.976;8.306;2023-04-21T12:19:39;22.30;40.90
10316;DHT22;5203;48.976;8.306;2023-04-21T12:22:10;22.30;38.60
10316;DHT22;5203;48.976;8.306;2023-04-21T12:24:36;22.40;39.40
10316;DHT22;5203;48.976;8.306;2023-04-21T12:27:03;22.60;38.20
10316;DHT22;5203;48.976;8.306;2023-04-21T12:29:29;23.00;37.40
10316;DHT22;5203;48.976;8.306;2023-04-21T12:31:55;23.00;38.10
10316;DHT22;5203;48.976;8.306;2023-04-21T12:34:20;22.90;37.20
10316;DHT22;5203;48.976;8.306;2023-04-21T12:36:46;23.10;37.90
10316;DHT22;5203;48.976;8.306;2023-04-21T12:39:12;23.20;38.20
10316;DHT22;5203;48.976;8.306;2023-04-21T12:41:39;22.80;38.30
10316;DHT22;5203;48.976;8.306;2023-04-21T12:44:05;22.60;39.10
10316;DHT22;5203;48.976;8.306;2023-04-21T12:46:31;22.70;39.00
10316;DHT22;5203;48.976;8.306;2023-04-21T12:48:56;23.00;38.30
10316;DHT22;5203;48.976;8.306;2023-04-21T12:51:22;23.20;36.20
10316;DHT22;5203;48.976;8.306;2023-04-21T12:53:48;23.70;36.40
10316;DHT22;5203;48.976;8.306;2023-04-21T12:56:14;23.80;37.10
10316;DHT22;5203;48.976;8.306;2023-04-21T12:58:39;23.60;37.80
10316;DHT22;5203;48.976;8.306;2023-04-21T13:01:06;23.60;37.90
10316;DHT22;5203;48.976;8.306;2023-04-21T13:03:32;23.50;38.10
10316;DHT22;5203;48.976;8.306;2023-04-21T13:05:58;23.70;38.70
10316;DHT22;5203;48.976;8.306;2023-04-21T13:08:24;23.90;36.50
10316;DHT22;5203;48.976;8.306;2023-04-21T13:10:49;24.00;35.10
10316;DHT22;5203;48.976;8.306;2023-04-21T13:13:15;23.90;35.80
10316;DHT22;5203;48.976;8.306;2023-04-21T13:15:41;23.80;37.20
10316;DHT22;5203;48.976;8.306;2023-04-21T13:18:06;23.90;36.50
10316;DHT22;5203;48.976;8.306;2023-04-21T13:20:32;24.50;35.40
10316;DHT22;5203;48.976;8.306;2023-04-21T13:22:57;24.80;34.20
10316;DHT22;5203;48.976;8.306;2023-04-21T13:25:23;24.50;36.00
10316;DHT22;5203;48.976;8.306;2023-04-21T13:27:49;24.40;34.70
10316;DHT22;5203;48.976;8.306;2023-04-21T13:30:15;24.10;35.90
10316;DHT22;5203;48.976;8.306;2023-04-21T13:32:41;23.60;36.20
10316;DHT22;5203;48.976;8.306;2023-04-21T13:35:07;23.90;36.10
10316;DHT22;5203;48.976;8.306;2023-04-21T13:37:38;24.10;35.20
10316;DHT22;5203;48.976;8.306;2023-04-21T13:40:06;23.90;36.10
10316;DHT22;5203;48.976;8.306;2023-04-21T13:42:32;24.00;36.70
10316;DHT22;5203;48.976;8.306;2023-04-21T13:44:59;24.10;36.60
10316;DHT22;5203;48.976;8.306;2023-04-21T13:47:27;24.20;37.20
10316;DHT22;5203;48.976;8.306;2023-04-21T13:49:53;24.70;35.90
10316;DHT22;5203;48.976;8.306;2023-04-21T13:52:18;24.40;36.10
10316;DHT22;5203;48.976;8.306;2023-04-21T13:54:44;24.70;35.30
10316;DHT22;5203;48.976;8.306;2023-04-21T13:57:10;24.50;36.00
10316;DHT22;5203;48.976;8.306;2023-04-21T13:59:35;24.80;36.50
10316;DHT22;5203;48.976;8.306;2023-04-21T14:02:01;25.30;35.20
10316;DHT22;5203;48.976;8.306;2023-04-21T14:04:27;26.00;33.60
10316;DHT22;5203;48.976;8.306;2023-04-21T14:06:52;25.80;33.20
10316;DHT22;5203;48.976;8.306;2023-04-21T14:09:18;25.80;33.60
10316;DHT22;5203;48.976;8.306;2023-04-21T14:11:44;26.10;33.90
10316;DHT22;5203;48.976;8.306;2023-04-21T14:14:09;26.30;32.70
10316;DHT22;5203;48.976;8.306;2023-04-21T14:16:35;26.00;33.70
10316;DHT22;5203;48.976;8.306;2023-04-21T14:19:01;26.00;32.70
10316;DHT22;5203;48.976;8.306;2023-04-21T14:21:26;26.20;32.80
10316;DHT22;5203;48.976;8.306;2023-04-21T14:23:52;25.60;33.20
10316;DHT22;5203;48.976;8.306;2023-04-21T14:26:18;25.50;34.20
10316;DHT22;5203;48.976;8.306;2023-04-21T14:28:43;25.70;33.30
10316;DHT22;5203;48.976;8.306;2023-04-21T14:31:09;25.80;33.10
10316;DHT22;5203;48.976;8.306;2023-04-21T14:33:35;25.20;34.90
10316;DHT22;5203;48.976;8.306;2023-04-21T14:36:00;24.90;35.40
10316;DHT22;5203;48.976;8.306;2023-04-21T14:38:26;24.50;35.90
10316;DHT22;5203;48.976;8.306;2023-04-21T14:40:53;23.90;37.20
10316;DHT22;5203;48.976;8.306;2023-04-21T14:43:20;23.70;38.30
10316;DHT22;5203;48.976;8.306;2023-04-21T14:45:46;23.50;38.80
10316;DHT22;5203;48.976;8.306;2023-04-21T14:48:12;23.30;39.40
10316;DHT22;5203;48.976;8.306;2023-04-21T14:50:40;23.00;39.90
10316;DHT22;5203;48.976;8.306;2023-04-21T14:53:06;23.40;39.50
10316;DHT22;5203;48.976;8.306;2023-04-21T14:55:32;23.70;38.30
10316;DHT22;5203;48.976;8.306;2023-04-21T14:57:58;23.50;39.50
10316;DHT22;5203;48.976;8.306;2023-04-21T15:00:25;23.00;42.90
10316;DHT22;5203;48.976;8.306;2023-04-21T15:02:51;22.60;54.30
10316;DHT22;5203;48.976;8.306;2023-04-21T15:05:17;22.00;60.00
10316;DHT22;5203;48.976;8.306;2023-04-21T15:07:43;21.50;60.60
10316;DHT22;5203;48.976;8.306;2023-04-21T15:10:09;21.00;62.00
10316;DHT22;5203;48.976;8.306;2023-04-21T15:12:35;20.40;54.00
10316;DHT22;5203;48.976;8.306;2023-04-21T15:15:02;19.20;57.30
10316;DHT22;5203;48.976;8.306;2023-04-21T15:17:28;18.50;65.00
10316;DHT22;5203;48.976;8.306;2023-04-21T15:19:54;17.40;67.30
10316;DHT22;5203;48.976;8.306;2023-04-21T15:22:19;16.40;69.60
10316;DHT22;5203;48.976;8.306;2023-04-21T15:24:45;15.80;71.40
10316;DHT22;5203;48.976;8.306;2023-04-21T15:27:11;15.30;78.10
10316;DHT22;5203;48.976;8.306;2023-04-21T15:29:36;14.70;77.10
10316;DHT22;5203;48.976;8.306;2023-04-21T15:32:02;14.20;81.50
10316;DHT22;5203;48.976;8.306;2023-04-21T15:34:28;14.20;81.00
10316;DHT22;5203;48.976;8.306;2023-04-21T15:36:54;14.50;74.50
10316;DHT22;5203;48.976;8.306;2023-04-21T15:39:19;14.70;72.60
10316;DHT22;5203;48.976;8.306;2023-04-21T15:41:46;15.00;74.30
10316;DHT22;5203;48.976;8.306;2023-04-21T15:44:11;15.20;73.80
10316;DHT22;5203;48.976;8.306;2023-04-21T15:46:37;15.40;68.50
10316;DHT22;5203;48.976;8.306;2023-04-21T15:49:03;15.80;72.00
10316;DHT22;5203;48.976;8.306;2023-04-21T15:51:33;15.90;70.70
10316;DHT22;5203;48.976;8.306;2023-04-21T15:54:02;16.20;71.30
10316;DHT22;5203;48.976;8.306;2023-04-21T15:56:31;16.60;70.80
10316;DHT22;5203;48.976;8.306;2023-04-21T15:58:59;17.70;66.60
10316;DHT22;5203;48.976;8.306;2023-04-21T16:01:25;18.90;65.90
10316;DHT22;5203;48.976;8.306;2023-04-21T16:03:51;20.00;62.40
10316;DHT22;5203;48.976;8.306;2023-04-21T16:06:17;20.90;56.20